createdAt,value
2023-01-21T00:30:25.748Z,114.82
2023-01-21T01:08:35.535Z,97.32
2023-01-21T01:09:35.777Z,100.89
2023-01-21T01:10:36.043Z,111.08
2023-01-21T01:11:36.316Z,108.27
2023-01-21T01:12:36.579Z,88.32
2023-01-21T01:13:36.811Z,109.19
2023-01-21T01:48:45.703Z,117.98
2023-01-21T01:49:45.981Z,113.99
2023-01-21T01:50:46.208Z,122.91
2023-01-21T01:51:46.542Z,128.24
2023-01-21T01:52:46.775Z,122.99
2023-01-21T01:53:47.051Z,125.51
2023-01-21T01:54:47.319Z,126.98
2023-01-21T01:55:47.573Z,122.69
2023-01-21T01:56:47.903Z,143.07
2023-01-21T01:57:48.103Z,129.85
2023-01-21T01:58:48.366Z,143.89
2023-01-21T01:59:48.635Z,140.65
2023-01-21T02:30:55.674Z,132.54
2023-01-21T02:31:55.838Z,129.52
2023-01-21T02:32:56.097Z,137.51
2023-01-21T02:33:56.282Z,130.38
2023-01-21T02:34:56.513Z,130.30
2023-01-21T02:35:56.777Z,129.50
2023-01-21T02:36:56.993Z,121.03
2023-01-21T02:37:57.210Z,123.07
2023-01-21T02:38:57.428Z,126.65
2023-01-21T02:39:57.646Z,146.95
2023-01-21T02:40:57.864Z,143.59
2023-01-21T02:41:58.133Z,156.78
2023-01-21T02:42:58.345Z,151.06
2023-01-21T03:11:05.756Z,153.19
2023-01-21T03:12:06.043Z,149.05
2023-01-21T03:13:06.331Z,143.26
2023-01-21T03:14:06.612Z,152.71
2023-01-21T03:15:06.893Z,161.22
2023-01-21T03:16:07.207Z,156.74
2023-01-21T03:17:07.482Z,158.13
2023-01-21T03:18:07.763Z,155.88
2023-01-21T03:19:08.074Z,168.22
2023-01-21T03:20:08.280Z,167.82
2023-01-21T03:21:08.511Z,152.09
2023-01-21T03:22:08.809Z,149.57
2023-01-21T03:23:09.038Z,148.21
2023-01-21T03:24:09.364Z,160.88
2023-01-21T03:25:09.560Z,162.41
2023-01-21T03:26:09.780Z,154.41
2023-01-21T03:27:10.131Z,165.80
2023-01-21T03:28:10.315Z,163.12
2023-01-21T03:29:10.567Z,158.62
2023-01-21T03:30:10.917Z,159.41
2023-01-21T03:31:11.303Z,141.16
2023-01-21T03:48:15.561Z,177.80
2023-01-21T03:49:15.852Z,169.70
2023-01-21T03:50:16.487Z,172.73
2023-01-21T03:51:15.923Z,178.72
2023-01-21T03:52:15.867Z,190.27
2023-01-21T03:53:16.151Z,177.41
2023-01-21T03:54:16.460Z,183.12
2023-01-21T03:55:16.733Z,181.22
2023-01-21T03:56:16.909Z,184.46
2023-01-21T03:57:17.235Z,189.14
2023-01-21T03:58:17.532Z,191.25
2023-01-21T03:59:17.702Z,191.05
2023-01-21T04:00:18.343Z,190.47
2023-01-21T04:01:18.350Z,178.13
2023-01-21T04:02:18.507Z,175.95
2023-01-21T04:03:18.788Z,178.14
2023-01-21T04:04:18.956Z,169.29
2023-01-21T04:05:19.260Z,172.97
2023-01-21T04:06:19.535Z,184.36
2023-01-21T04:26:25.631Z,141.93
2023-01-21T04:27:25.925Z,150.73
2023-01-21T04:28:26.180Z,159.09
2023-01-21T04:29:26.498Z,161.59
2023-01-21T04:30:26.754Z,163.35
2023-01-21T04:31:27.131Z,146.97
2023-01-21T04:32:27.344Z,144.83
2023-01-21T04:33:27.601Z,141.42
2023-01-21T04:34:27.873Z,132.03
2023-01-21T04:35:28.136Z,131.38
2023-01-21T05:03:35.594Z,139.17
2023-01-21T05:04:35.896Z,134.55
2023-01-21T05:05:36.159Z,114.77
2023-01-21T05:06:36.427Z,109.67
2023-01-21T05:07:36.635Z,121.37
2023-01-21T05:41:45.533Z,157.65
2023-01-21T05:42:45.731Z,181.27
2023-01-21T05:43:45.971Z,183.28
2023-01-21T05:44:46.160Z,195.02
2023-01-21T05:45:46.427Z,203.95
2023-01-21T05:46:46.722Z,203.78
2023-01-21T05:47:46.877Z,207.22
2023-01-21T05:48:47.104Z,212.31
2023-01-21T05:49:47.325Z,220.58
2023-01-21T06:22:55.538Z,198.27
2023-01-21T06:23:55.731Z,225.62
2023-01-21T06:24:55.993Z,207.97
2023-01-21T06:25:56.241Z,193.59
2023-01-21T06:26:56.495Z,194.59
2023-01-21T06:27:56.696Z,180.88
2023-01-21T06:28:56.887Z,186.62
2023-01-21T06:29:57.129Z,185.22
2023-01-21T06:30:57.463Z,199.31
2023-01-21T06:31:57.730Z,211.36
2023-01-21T06:32:57.849Z,235.91
2023-01-21T06:33:58.036Z,245.90
2023-01-21T06:34:59.323Z,246.36
2023-01-21T06:35:58.144Z,211.84
2023-01-21T06:36:58.003Z,199.32
2023-01-21T06:37:57.990Z,201.87
2023-01-21T06:38:58.255Z,200.62
2023-01-21T06:39:58.483Z,205.76
2023-01-21T06:40:58.682Z,193.94
2023-01-21T06:41:58.924Z,191.17
2023-01-21T06:42:59.112Z,190.89
2023-01-21T06:43:59.342Z,198.62
2023-01-21T06:44:59.581Z,199.98
2023-01-21T06:45:59.869Z,212.84
2023-01-21T06:47:01.199Z,213.17
2023-01-21T06:47:59.879Z,210.05
2023-01-21T06:48:59.749Z,214.93
2023-01-21T06:49:59.608Z,224.40
2023-01-21T06:50:59.472Z,252.04
2023-01-21T06:51:59.342Z,260.26
2023-01-21T06:52:59.357Z,247.31
2023-01-21T06:53:59.502Z,250.05
2023-01-21T06:54:59.820Z,244.93
2023-01-21T06:55:59.967Z,245.26
2023-01-21T06:57:00.224Z,238.49
2023-01-21T06:58:00.411Z,232.20
2023-01-21T06:59:00.673Z,239.31
2023-01-21T07:00:01.086Z,248.74
2023-01-21T07:01:01.161Z,251.22
2023-01-21T07:02:01.363Z,250.22
2023-01-21T07:03:01.626Z,219.99
2023-01-21T07:04:01.890Z,202.95
2023-01-21T07:05:02.172Z,197.89
2023-01-21T07:06:02.389Z,192.95
2023-01-21T07:19:05.594Z,250.00
2023-01-21T07:20:05.870Z,238.41
2023-01-21T07:21:06.113Z,233.18
2023-01-21T07:22:06.310Z,227.96
2023-01-21T07:23:06.557Z,227.75
2023-01-21T07:24:06.811Z,228.84
2023-01-21T07:25:07.039Z,229.99
2023-01-21T07:26:07.289Z,225.99
2023-01-21T07:27:07.547Z,224.76
2023-01-21T07:28:07.739Z,220.33
2023-01-21T07:29:08.015Z,220.61
2023-01-21T07:30:08.250Z,221.14
2023-01-21T07:31:08.624Z,228.56
2023-01-21T07:32:08.783Z,233.25
2023-01-21T07:33:09.045Z,241.37
2023-01-21T07:34:09.308Z,242.50
2023-01-21T07:35:09.542Z,242.87
2023-01-21T08:00:15.812Z,173.83
2023-01-21T08:01:16.063Z,138.18
2023-01-21T08:02:16.411Z,143.23
2023-01-21T08:03:16.554Z,162.19
2023-01-21T08:04:16.771Z,157.53
2023-01-21T08:05:17.232Z,137.97
2023-01-21T08:46:25.699Z,100.39
2023-01-21T08:47:25.906Z,96.83
2023-01-21T08:48:26.301Z,89.81
2023-01-21T08:49:26.451Z,78.66
2023-01-21T08:50:26.699Z,80.08
2023-01-21T08:51:26.936Z,118.48
2023-01-21T08:52:27.175Z,116.45
2023-01-21T08:53:27.531Z,130.45
2023-01-21T08:54:27.732Z,123.23
2023-01-21T08:55:28.049Z,94.38
2023-01-21T08:56:28.263Z,95.96
2023-01-21T08:57:28.595Z,72.87
2023-01-21T08:58:28.823Z,65.38
2023-01-21T08:59:29.057Z,52.36
2023-01-21T09:00:29.327Z,35.11
2023-01-21T09:01:29.663Z,41.33
2023-01-21T09:02:29.911Z,34.19
2023-01-21T09:03:30.109Z,42.56
2023-01-21T09:04:30.353Z,44.81
2023-01-21T09:05:30.595Z,25.74
2023-01-21T09:06:30.831Z,43.76
2023-01-21T09:07:31.059Z,43.19
2023-01-21T09:08:31.376Z,55.35
2023-01-21T10:53:25.601Z,127.99
2023-01-21T10:54:25.805Z,119.84
2023-01-21T10:55:26.023Z,134.51
2023-01-21T10:56:26.233Z,77.43
2023-01-21T10:57:26.448Z,145.90
2023-01-21T10:58:26.641Z,182.75
2023-01-21T10:59:26.861Z,138.71
2023-01-21T11:00:27.027Z,143.02
2023-01-21T11:01:27.319Z,86.44
2023-01-21T11:02:27.560Z,128.07
2023-01-21T11:03:27.709Z,113.72
2023-01-21T11:04:27.893Z,154.77
2023-01-21T11:05:28.128Z,196.37
2023-01-21T11:06:28.353Z,181.56
2023-01-21T11:07:28.592Z,178.15
2023-01-21T11:08:28.839Z,140.18
2023-01-21T11:40:35.722Z,39.52
2023-01-21T11:41:35.961Z,78.61
2023-01-21T11:42:36.179Z,62.78
2023-01-21T11:43:36.407Z,136.48
2023-01-21T11:44:36.633Z,188.82
2023-01-21T11:45:36.866Z,242.65
2023-01-21T12:27:45.561Z,175.20
2023-01-21T12:28:45.855Z,156.93
2023-01-21T13:13:55.584Z,166.21
2023-01-21T13:14:55.767Z,202.85
2023-01-21T13:16:56.195Z,206.48
2023-01-21T13:17:56.360Z,188.44
2023-01-21T13:18:56.546Z,171.58
2023-01-21T13:19:56.740Z,258.71
2023-01-21T13:20:57.018Z,341.53
2023-01-21T13:21:57.216Z,368.85
2023-01-21T13:22:57.400Z,324.61
2023-01-21T13:23:57.587Z,225.55
2023-01-21T13:24:57.788Z,201.45
2023-01-21T13:25:58.043Z,183.95
2023-01-21T13:26:58.245Z,190.45
2023-01-21T13:27:58.439Z,220.07
2023-01-21T13:28:58.636Z,213.01
2023-01-21T13:29:58.830Z,193.60
2023-01-21T13:30:59.082Z,189.72
2023-01-21T13:31:59.246Z,171.87
2023-01-21T13:32:59.399Z,173.82
2023-01-21T13:33:59.681Z,138.40
2023-01-21T13:34:59.836Z,120.12
2023-01-21T13:36:00.044Z,127.41
2023-01-21T13:37:00.228Z,150.58
2023-01-21T13:38:00.415Z,135.75
2023-01-21T13:39:00.576Z,156.46
2023-01-21T13:40:00.757Z,163.58
2023-01-21T13:41:00.948Z,205.58
2023-01-21T13:42:01.139Z,203.67
2023-01-21T13:43:01.331Z,179.62
2023-01-21T13:44:01.551Z,178.72
2023-01-21T13:45:01.705Z,194.19
2023-01-21T13:46:01.896Z,193.11
2023-01-21T13:47:02.145Z,210.84
2023-01-21T13:48:02.313Z,218.07
2023-01-21T13:49:02.517Z,214.93
2023-01-21T13:53:03.346Z,186.56
2023-01-21T14:05:05.611Z,206.03
2023-01-21T14:06:05.817Z,217.56
2023-01-21T14:07:06.010Z,199.57
2023-01-21T14:08:06.194Z,217.48
2023-01-21T14:09:06.367Z,224.93
2023-01-21T14:10:06.560Z,200.66
2023-01-21T14:11:06.726Z,192.69
2023-01-21T14:12:06.920Z,181.88
2023-01-21T14:13:07.111Z,185.56
2023-01-21T14:14:07.310Z,182.97
2023-01-21T14:15:07.475Z,187.51
2023-01-21T14:16:07.704Z,178.18
2023-01-21T14:17:07.887Z,186.81
2023-01-21T14:18:08.135Z,195.70
2023-01-21T14:19:08.309Z,179.53
2023-01-21T14:20:08.479Z,174.42
2023-01-21T14:21:08.642Z,178.66
2023-01-21T14:22:08.810Z,202.32
2023-01-21T14:23:09.005Z,204.92
2023-01-21T14:24:09.159Z,213.54
2023-01-21T14:25:09.357Z,198.08
2023-01-21T14:26:09.540Z,222.25
2023-01-21T14:27:09.754Z,227.15
2023-01-21T14:28:09.964Z,224.15
2023-01-21T14:58:15.541Z,219.09
2023-01-21T14:59:15.682Z,218.28
2023-01-21T15:00:15.818Z,245.02
2023-01-21T15:01:16.052Z,247.22
2023-01-21T15:02:16.226Z,241.08
2023-01-21T15:03:16.346Z,234.91
2023-01-21T15:04:16.565Z,231.09
2023-01-21T15:05:17.060Z,230.28
2023-01-21T15:06:16.938Z,211.81
2023-01-21T15:07:17.057Z,231.23
2023-01-21T15:08:17.324Z,235.79
2023-01-21T15:09:17.475Z,231.68
2023-01-21T15:10:17.657Z,227.80
2023-01-21T15:11:17.944Z,246.47
2023-01-21T15:47:25.555Z,217.83
2023-01-21T15:48:40.200Z,206.50
2023-01-21T15:49:26.712Z,207.03
2023-01-21T15:50:25.711Z,211.43
2023-01-21T15:51:25.730Z,212.41
2023-01-21T15:52:25.673Z,200.54
2023-01-21T15:53:25.670Z,206.01
2023-01-21T15:54:25.671Z,228.39
2023-01-21T15:55:25.650Z,221.26
2023-01-21T15:56:25.639Z,227.01
2023-01-21T15:57:25.625Z,206.54
2023-01-21T15:58:25.605Z,198.73
2023-01-21T15:59:25.593Z,206.04
2023-01-21T16:00:25.560Z,214.78
2023-01-21T16:01:25.595Z,207.18
2023-01-21T16:02:25.596Z,195.95
2023-01-21T16:03:25.531Z,207.79
2023-01-21T16:04:25.516Z,218.88
2023-01-21T16:15:25.516Z,218.69
2023-01-21T16:16:25.550Z,233.18
2023-01-21T16:17:25.547Z,218.36
2023-01-21T16:18:25.564Z,223.85
2023-01-21T16:19:25.563Z,234.86
2023-01-21T16:20:25.578Z,233.63
2023-01-21T16:21:25.551Z,239.68
2023-01-21T16:22:25.515Z,248.30
2023-01-21T16:23:25.511Z,242.98
2023-01-21T16:24:25.527Z,245.48
2023-01-21T16:25:25.570Z,242.77
2023-01-21T16:28:25.599Z,222.89
2023-01-21T16:29:25.575Z,234.91
2023-01-21T16:30:25.590Z,211.58
2023-01-21T16:31:25.676Z,207.93
2023-01-21T16:32:25.569Z,211.89
2023-01-21T16:33:25.606Z,222.23
2023-01-21T16:34:25.589Z,232.53
2023-01-21T16:35:25.588Z,219.47
2023-01-21T16:36:25.604Z,219.46
2023-01-21T16:37:25.592Z,228.23
2023-01-21T16:38:25.586Z,235.63
2023-01-21T16:39:25.545Z,227.99
2023-01-21T16:40:25.540Z,216.49
2023-01-21T16:41:25.570Z,221.71
2023-01-21T16:42:25.602Z,239.44
2023-01-21T16:43:25.616Z,229.59
2023-01-21T16:44:25.622Z,218.10
2023-01-21T16:45:25.626Z,224.60
2023-01-21T16:46:25.701Z,227.21
2023-01-21T16:47:25.676Z,229.81
2023-01-21T16:48:25.687Z,244.80
2023-01-21T16:49:25.707Z,235.90
2023-01-21T16:50:25.710Z,230.21
2023-01-21T16:51:25.800Z,220.28
2023-01-21T16:52:25.784Z,207.73
2023-01-21T16:53:25.858Z,199.19
2023-01-21T16:54:25.918Z,195.99
2023-01-21T16:55:25.977Z,206.89
2023-01-21T16:56:26.038Z,227.43
2023-01-21T16:57:26.110Z,221.30
2023-01-21T16:58:26.265Z,216.88
2023-01-21T16:59:26.574Z,217.47
2023-01-21T17:00:26.783Z,210.29
2023-01-21T17:04:27.636Z,233.97
2023-01-21T17:43:35.551Z,223.00
2023-01-21T17:44:35.735Z,223.26
2023-01-21T17:45:35.937Z,218.12
2023-01-21T17:46:36.134Z,195.60
2023-01-21T17:47:45.398Z,212.74
2023-01-21T17:49:36.311Z,189.99
2023-01-21T17:50:36.307Z,193.88
2023-01-21T17:51:36.296Z,184.87
2023-01-21T17:52:36.253Z,202.60
2023-01-21T17:53:36.228Z,222.26
2023-01-21T17:54:36.209Z,211.01
2023-01-21T17:55:36.173Z,222.84
2023-01-21T17:56:36.139Z,187.63
2023-01-21T17:57:36.129Z,189.72
2023-01-21T17:58:36.113Z,181.97
2023-01-21T17:59:36.092Z,209.32
2023-01-21T18:00:36.091Z,216.69
2023-01-21T18:01:36.028Z,224.97
2023-01-21T18:03:35.957Z,220.47
2023-01-21T18:04:35.935Z,226.39
2023-01-21T18:05:38.250Z,229.22
2023-01-21T18:06:35.886Z,241.64
2023-01-21T18:07:35.925Z,240.12
2023-01-21T18:08:35.908Z,235.12
2023-01-21T18:09:35.907Z,241.01
2023-01-21T18:10:35.924Z,239.51
2023-01-21T18:11:35.928Z,239.50
2023-01-21T18:12:35.933Z,239.49
2023-01-21T18:13:35.924Z,245.31
2023-01-21T18:14:35.940Z,226.58
2023-01-21T18:22:36.191Z,188.48
2023-01-21T18:23:36.224Z,206.63
2023-01-21T18:24:36.253Z,194.42
2023-01-21T18:25:36.292Z,196.13
2023-01-21T18:26:36.337Z,187.17
2023-01-21T18:27:36.342Z,193.51
2023-01-21T18:28:36.347Z,214.15
2023-01-21T18:29:36.409Z,197.29
2023-01-21T18:30:36.726Z,201.42
2023-01-21T18:31:37.000Z,193.08
2023-01-21T18:32:37.100Z,192.66
2023-01-21T18:33:37.465Z,195.54
2023-01-21T18:34:37.569Z,212.78
2023-01-21T18:35:37.756Z,209.54
2023-01-21T18:36:37.972Z,213.50
2023-01-21T18:38:38.351Z,211.37
2023-01-21T19:11:45.510Z,219.67
2023-01-21T19:45:48.506Z,207.61
2023-01-21T19:46:48.570Z,200.36
2023-01-21T19:47:48.570Z,181.43
2023-01-21T19:48:48.620Z,208.43
2023-01-21T19:49:48.627Z,197.86
2023-01-21T19:50:48.730Z,202.54
2023-01-21T19:51:48.677Z,196.99
2023-01-21T19:52:48.692Z,188.36
2023-01-21T19:53:48.730Z,171.96
2023-01-21T19:54:48.745Z,174.09
2023-01-21T19:55:48.783Z,179.91
2023-01-21T19:56:48.801Z,191.51
2023-01-21T19:57:48.815Z,205.93
2023-01-21T19:58:48.828Z,212.87
2023-01-21T19:59:48.851Z,220.41
2023-01-21T20:01:48.904Z,220.93
2023-01-21T20:02:48.935Z,220.48
2023-01-21T20:03:59.599Z,226.38
2023-01-21T20:04:49.921Z,217.54
2023-01-21T20:05:48.879Z,217.03
2023-01-21T20:06:48.856Z,229.13
2023-01-21T20:07:48.829Z,233.54
2023-01-21T20:08:48.799Z,220.78
2023-01-21T20:52:55.508Z,214.98
2023-01-21T20:53:55.746Z,206.27
2023-01-21T20:54:55.946Z,190.64
2023-01-21T20:55:56.153Z,247.80
2023-01-21T20:56:56.366Z,264.56
2023-01-21T20:57:56.574Z,245.63
2023-01-21T20:58:56.785Z,218.70
2023-01-21T20:59:57.115Z,215.08
2023-01-21T21:00:57.323Z,217.38
2023-01-21T21:01:57.642Z,222.69
2023-01-21T21:02:57.849Z,220.54
2023-01-21T21:03:58.005Z,211.36
2023-01-21T21:04:58.229Z,188.97
2023-01-21T21:05:58.441Z,190.14
2023-01-21T21:06:58.663Z,195.05
2023-01-21T21:07:58.891Z,207.11
2023-01-21T21:08:59.117Z,201.91
2023-01-21T21:09:59.341Z,195.10
2023-01-21T21:10:59.557Z,189.34
2023-01-21T21:11:59.777Z,194.98
2023-01-21T21:13:00.004Z,195.48
2023-01-21T21:14:00.236Z,197.28
2023-01-21T21:15:00.452Z,200.21
2023-01-21T21:16:00.687Z,196.11
2023-01-21T21:17:00.892Z,184.63
2023-01-21T21:18:01.095Z,185.32
2023-01-21T21:19:01.324Z,183.65
2023-01-21T21:20:01.655Z,195.82
2023-01-21T21:21:01.799Z,190.72
2023-01-21T21:22:02.014Z,191.63
2023-01-21T21:38:05.598Z,212.98
2023-01-21T21:39:05.828Z,229.70
2023-01-21T21:40:06.082Z,212.85
2023-01-21T21:41:06.270Z,206.38
2023-01-21T21:42:06.482Z,199.40
2023-01-21T21:43:06.703Z,193.38
2023-01-21T21:44:06.910Z,187.93
2023-01-21T21:45:07.137Z,208.27
2023-01-21T21:46:07.370Z,212.34
2023-01-21T21:47:07.555Z,211.99
2023-01-21T21:48:07.796Z,195.90
2023-01-21T22:47:15.530Z,207.52
2023-01-21T22:48:15.560Z,208.93
2023-01-21T22:49:15.574Z,203.29
2023-01-21T22:50:15.610Z,210.73
2023-01-21T22:51:15.861Z,210.84
2023-01-21T22:52:15.675Z,193.44
2023-01-21T22:53:15.681Z,188.55
2023-01-21T22:54:15.717Z,195.00
2023-01-21T22:55:15.912Z,210.16
2023-01-21T22:56:15.736Z,200.20
2023-01-21T22:57:15.761Z,205.35
2023-01-21T22:58:15.747Z,200.04
2023-01-21T22:59:15.756Z,194.14
2023-01-21T23:00:15.751Z,206.13
2023-01-21T23:01:15.776Z,211.32
2023-01-21T23:02:15.795Z,190.08
2023-01-21T23:03:15.825Z,191.64
2023-01-21T23:04:15.849Z,202.48
2023-01-21T23:05:16.390Z,183.86
2023-01-21T23:06:15.849Z,186.12
2023-01-21T23:07:15.855Z,190.38
2023-01-21T23:08:15.852Z,182.21
2023-01-21T23:09:15.881Z,189.69
2023-01-21T23:10:16.302Z,192.09
2023-01-21T23:11:15.955Z,217.89
2023-01-21T23:12:15.997Z,234.87
2023-01-21T23:13:16.037Z,196.97
2023-01-21T23:14:16.020Z,188.21
2023-01-21T23:15:16.035Z,195.62
2023-01-21T23:16:16.129Z,196.78
2023-01-21T23:17:16.110Z,189.24
2023-01-21T23:18:16.140Z,210.17
2023-01-21T23:19:16.189Z,203.58
2023-01-21T23:20:16.487Z,212.80
2023-01-21T23:21:16.241Z,205.24
2023-01-21T23:22:16.284Z,208.48
2023-01-21T23:23:16.312Z,214.18
2023-01-21T23:24:16.369Z,204.09
2023-01-21T23:25:16.375Z,203.35
2023-01-21T23:26:16.389Z,189.89
2023-01-21T23:27:16.427Z,202.92
2023-01-21T23:28:16.458Z,211.05
2023-01-21T23:29:16.488Z,216.20
2023-01-21T23:30:16.870Z,218.54
2023-01-21T23:31:16.728Z,221.21
2023-01-21T23:32:16.586Z,221.83
2023-01-21T23:33:16.628Z,228.74
2023-01-21T23:34:16.673Z,214.43
2023-01-21T23:35:16.685Z,218.61
2023-01-21T23:36:16.719Z,205.90
2023-01-21T23:37:16.738Z,191.34
